createdAt,value
2018-12-07T00:01:42.615Z,12.78
2018-12-07T00:06:45.105Z,10.85
2018-12-07T00:11:47.894Z,9.75
2018-12-07T00:16:50.359Z,9.18
2018-12-07T00:21:52.990Z,8.68
2018-12-07T00:26:56.554Z,10.80
2018-12-07T00:31:59.068Z,7.75
2018-12-07T00:37:01.479Z,6.03
2018-12-07T00:42:03.913Z,5.20
2018-12-07T00:47:06.320Z,8.53
2018-12-07T00:52:08.703Z,6.37
2018-12-07T00:57:11.123Z,5.10
2018-12-07T01:02:13.568Z,5.87
2018-12-07T01:07:15.978Z,4.08
2018-12-07T01:12:19.431Z,7.95
2018-12-07T01:17:21.865Z,5.25
2018-12-07T01:22:24.349Z,6.72
2018-12-07T01:27:26.753Z,6.67
2018-12-07T01:32:29.254Z,5.80
2018-12-07T01:37:31.654Z,5.00
2018-12-07T01:42:34.066Z,5.42
2018-12-07T01:47:41.152Z,5.67
2018-12-07T01:52:43.712Z,3.80
2018-12-07T01:57:46.090Z,4.55
2018-12-07T02:02:48.584Z,5.65
2018-12-07T02:07:51.103Z,5.33
2018-12-07T02:12:53.710Z,4.42
2018-12-07T02:17:56.107Z,4.22
2018-12-07T02:22:58.740Z,4.40
2018-12-07T02:28:01.086Z,4.97
2018-12-07T02:33:03.710Z,4.10
2018-12-07T02:38:06.086Z,5.37
2018-12-07T02:43:08.738Z,3.70
2018-12-07T02:48:11.119Z,4.33
2018-12-07T02:53:13.580Z,3.60
2018-12-07T02:58:16.420Z,3.52
2018-12-07T03:03:19.209Z,4.65
2018-12-07T03:08:21.706Z,3.25
2018-12-07T03:13:24.090Z,2.80
2018-12-07T03:18:30.546Z,3.60
2018-12-07T03:23:32.939Z,4.78
2018-12-07T03:28:35.392Z,3.70
2018-12-07T03:33:37.790Z,2.95
2018-12-07T03:38:40.427Z,3.77
2018-12-07T03:43:42.872Z,3.08
2018-12-07T03:48:45.746Z,3.45
2018-12-07T03:53:48.163Z,5.37
2018-12-07T03:58:50.573Z,2.83
2018-12-07T04:03:53.052Z,3.92
2018-12-07T04:08:56.428Z,2.20
2018-12-07T04:13:58.904Z,2.52
2018-12-07T04:19:01.323Z,2.47
2018-12-07T04:24:03.845Z,2.60
2018-12-07T04:29:08.843Z,2.35
2018-12-07T04:34:11.520Z,4.40
2018-12-07T04:39:13.967Z,2.60
2018-12-07T04:44:16.625Z,3.02
2018-12-07T04:49:19.478Z,2.67
2018-12-07T04:54:21.908Z,2.42
2018-12-07T04:59:24.361Z,2.67
2018-12-07T05:04:26.797Z,2.60
2018-12-07T05:09:29.291Z,3.80
2018-12-07T05:14:31.758Z,5.12
2018-12-07T05:19:34.163Z,4.03
2018-12-07T05:24:36.787Z,5.10
2018-12-07T05:29:39.306Z,7.15
2018-12-07T05:34:41.821Z,8.40
2018-12-07T05:39:44.310Z,7.22
2018-12-07T05:44:46.891Z,8.05
2018-12-07T05:49:49.242Z,9.35
2018-12-07T05:54:51.710Z,8.45
2018-12-07T05:59:54.237Z,10.63
2018-12-07T06:04:56.879Z,6.75
2018-12-07T06:09:59.515Z,5.15
2018-12-07T06:15:01.993Z,6.53
2018-12-07T06:20:04.666Z,5.37
2018-12-07T06:25:07.163Z,3.92
2018-12-07T06:30:09.682Z,5.53
2018-12-07T06:35:12.380Z,5.47
2018-12-07T06:40:14.837Z,7.75
2018-12-07T06:45:17.507Z,4.72
2018-12-07T06:50:19.888Z,4.97
2018-12-07T06:55:22.305Z,4.00
2018-12-07T07:00:24.771Z,6.58
2018-12-07T07:05:27.378Z,7.12
2018-12-07T07:10:29.860Z,3.25
2018-12-07T07:15:32.555Z,6.80
2018-12-07T07:20:35.248Z,5.70
2018-12-07T07:25:37.952Z,6.28
2018-12-07T07:30:41.010Z,8.35
2018-12-07T07:35:43.658Z,7.25
2018-12-07T07:40:46.086Z,5.05
2018-12-07T07:45:48.682Z,7.03
2018-12-07T07:50:51.250Z,9.70
2018-12-07T07:55:53.822Z,8.45
2018-12-07T08:00:56.234Z,9.05
2018-12-07T08:05:58.715Z,8.68
2018-12-07T08:11:01.144Z,8.60
2018-12-07T08:16:03.972Z,9.00
2018-12-07T08:21:06.500Z,8.33
2018-12-07T08:26:09.315Z,10.10
2018-12-07T08:31:12.070Z,8.80
2018-12-07T08:36:14.507Z,4.80
2018-12-07T08:41:17.276Z,7.47
2018-12-07T08:46:19.996Z,7.37
2018-12-07T08:51:23.254Z,4.42
2018-12-07T08:56:26.216Z,6.17
2018-12-07T09:01:29.206Z,4.85
2018-12-07T09:06:31.703Z,9.85
2018-12-07T09:11:34.309Z,7.25
2018-12-07T09:16:36.881Z,6.05
2018-12-07T09:21:39.610Z,9.60
2018-12-07T09:26:42.306Z,4.40
2018-12-07T09:31:45.030Z,8.00
2018-12-07T09:36:47.413Z,8.70
2018-12-07T09:41:50.027Z,5.58
2018-12-07T09:46:52.579Z,6.60
2018-12-07T09:51:54.988Z,4.47
2018-12-07T09:56:57.644Z,7.53
2018-12-07T10:02:01.359Z,8.90
2018-12-07T10:07:04.271Z,8.58
2018-12-07T10:12:06.978Z,8.80
2018-12-07T10:17:09.526Z,7.95
2018-12-07T10:22:11.923Z,6.55
2018-12-07T10:27:14.537Z,8.75
2018-12-07T10:32:16.946Z,7.40
2018-12-07T10:37:19.445Z,13.22
2018-12-07T10:42:21.813Z,8.83
2018-12-07T10:47:24.355Z,10.58
2018-12-07T10:52:26.953Z,11.75
2018-12-07T10:57:30.447Z,10.70
2018-12-07T11:04:44.925Z,9.95
2018-12-07T11:10:51.359Z,9.40
2018-12-07T11:16:00.024Z,11.78
2018-12-07T11:21:07.926Z,7.35
2018-12-07T11:26:15.935Z,12.23
2018-12-07T11:31:23.967Z,7.00
2018-12-07T11:36:26.512Z,5.55
2018-12-07T11:41:28.886Z,10.10
2018-12-07T11:46:31.407Z,7.03
2018-12-07T11:51:34.231Z,11.95
2018-12-07T11:56:36.710Z,7.45
2018-12-07T12:01:44.770Z,10.30
2018-12-07T12:06:43.819Z,13.03
2018-12-07T12:11:46.309Z,9.93
2018-12-07T12:16:49.074Z,6.42
2018-12-07T12:21:51.607Z,7.17
2018-12-07T12:26:54.061Z,9.75
2018-12-07T12:31:56.730Z,8.95
2018-12-07T12:36:59.405Z,5.42
2018-12-07T12:42:02.130Z,6.28
2018-12-07T12:47:04.693Z,8.45
2018-12-07T12:52:07.280Z,6.42
2018-12-07T12:57:09.836Z,5.67
2018-12-07T13:02:13.182Z,6.67
2018-12-07T13:07:16.083Z,8.05
2018-12-07T13:12:18.574Z,7.62
2018-12-07T13:17:21.124Z,9.35
2018-12-07T13:22:23.708Z,5.47
2018-12-07T13:27:26.363Z,3.85
2018-12-07T13:32:29.034Z,3.08
2018-12-07T13:37:31.449Z,8.20
2018-12-07T13:42:33.882Z,7.58
2018-12-07T13:47:36.447Z,7.85
2018-12-07T13:52:39.268Z,4.10
2018-12-07T13:57:41.724Z,9.80
2018-12-07T14:02:44.510Z,4.72
2018-12-07T14:07:47.209Z,10.38
2018-12-07T14:12:49.827Z,5.65
2018-12-07T14:17:52.502Z,3.70
2018-12-07T14:22:55.585Z,2.92
2018-12-07T14:27:58.169Z,2.25
2018-12-07T14:33:01.341Z,2.00
2018-12-07T14:38:03.998Z,2.37
2018-12-07T14:43:06.554Z,1.72
2018-12-07T14:48:09.256Z,2.15
2018-12-07T14:53:11.682Z,1.40
2018-12-07T14:58:14.455Z,1.60
2018-12-07T15:03:17.238Z,1.30
2018-12-07T15:08:19.778Z,1.75
2018-12-07T15:13:22.535Z,1.40
2018-12-07T15:18:25.127Z,4.33
2018-12-07T15:23:27.552Z,2.25
2018-12-07T15:28:30.484Z,1.92
2018-12-07T15:33:33.401Z,1.47
2018-12-07T15:38:36.434Z,1.60
2018-12-07T15:43:39.472Z,2.87
2018-12-07T15:48:42.298Z,1.10
2018-12-07T15:53:44.751Z,3.45
2018-12-07T15:58:47.622Z,1.52
2018-12-07T16:03:50.359Z,2.27
2018-12-07T16:08:53.151Z,1.35
2018-12-07T16:13:55.732Z,1.30
2018-12-07T16:18:58.465Z,2.17
2018-12-07T16:24:01.071Z,1.10
2018-12-07T16:29:03.899Z,1.22
2018-12-07T16:34:06.586Z,3.50
2018-12-07T16:39:09.260Z,4.00
2018-12-07T16:44:11.968Z,3.12
2018-12-07T16:49:14.708Z,1.70
2018-12-07T16:54:17.369Z,1.75
2018-12-07T16:59:20.093Z,3.02
2018-12-07T17:04:22.685Z,3.45
2018-12-07T17:09:25.275Z,1.30
2018-12-07T17:14:28.096Z,1.40
2018-12-07T17:19:30.903Z,2.30
2018-12-07T17:24:33.446Z,4.97
2018-12-07T17:29:36.515Z,4.80
2018-12-07T17:34:39.499Z,2.15
2018-12-07T17:39:42.045Z,2.33
2018-12-07T17:44:44.812Z,2.70
2018-12-07T17:49:47.337Z,4.33
2018-12-07T17:54:49.779Z,2.22
2018-12-07T17:59:52.607Z,3.45
2018-12-07T18:04:55.546Z,3.52
2018-12-07T18:09:58.290Z,2.00
2018-12-07T18:15:00.885Z,4.00
2018-12-07T18:20:04.974Z,4.20
2018-12-07T18:25:07.958Z,3.40
2018-12-07T18:30:10.562Z,2.02
2018-12-07T18:35:13.160Z,3.00
2018-12-07T18:40:15.932Z,9.80
2018-12-07T18:45:18.525Z,2.85
2018-12-07T18:50:20.967Z,5.00
2018-12-07T18:55:23.598Z,5.08
2018-12-07T19:00:26.670Z,2.85
2018-12-07T19:05:29.094Z,1.95
2018-12-07T19:10:31.693Z,1.80
2018-12-07T19:15:34.218Z,3.37
2018-12-07T19:20:36.665Z,2.37
2018-12-07T19:25:39.155Z,3.67
2018-12-07T19:30:41.948Z,4.90
2018-12-07T19:35:44.708Z,1.50
2018-12-07T19:40:47.603Z,1.50
2018-12-07T19:45:50.253Z,2.02
2018-12-07T19:50:53.067Z,3.15
2018-12-07T19:55:55.856Z,3.62
2018-12-07T20:00:58.543Z,1.98
2018-12-07T20:06:00.968Z,2.40
2018-12-07T20:11:03.763Z,2.10
2018-12-07T20:16:06.241Z,2.22
2018-12-07T20:21:08.670Z,4.87
2018-12-07T20:26:11.272Z,1.85
2018-12-07T20:31:14.049Z,2.17
2018-12-07T20:36:16.744Z,2.87
2018-12-07T20:41:19.674Z,1.50
2018-12-07T20:46:22.200Z,2.65
2018-12-07T20:51:26.283Z,4.90
2018-12-07T20:56:29.191Z,3.60
2018-12-07T21:01:32.139Z,2.30
2018-12-07T21:11:03.245Z,6.33
2018-12-07T21:21:57.581Z,7.83
2018-12-07T21:27:00.126Z,10.28
2018-12-07T21:32:07.395Z,1.52
2018-12-07T21:37:09.963Z,1.75
2018-12-07T21:42:14.098Z,3.62
2018-12-07T21:53:23.464Z,4.20
2018-12-07T21:58:26.035Z,2.98
2018-12-07T22:03:28.924Z,5.10
2018-12-07T22:08:32.323Z,2.33
2018-12-07T22:13:34.846Z,5.80
2018-12-07T22:18:37.804Z,3.08
2018-12-07T22:23:40.427Z,7.55
2018-12-07T22:28:42.907Z,6.83
2018-12-07T22:33:47.271Z,2.58
2018-12-07T22:38:51.041Z,5.28
2018-12-07T22:43:54.218Z,6.65
2018-12-07T22:48:58.642Z,8.60
2018-12-07T22:54:01.330Z,10.58
2018-12-07T22:59:06.185Z,3.15
2018-12-07T23:04:08.826Z,5.40
2018-12-07T23:09:11.328Z,11.68
2018-12-07T23:14:14.726Z,4.10
2018-12-07T23:19:17.839Z,4.87
2018-12-07T23:24:20.258Z,5.72
2018-12-07T23:29:22.958Z,3.58
2018-12-07T23:34:25.504Z,6.60
2018-12-07T23:39:27.875Z,6.55
2018-12-07T23:44:30.295Z,11.40
2018-12-07T23:49:32.759Z,12.98
2018-12-07T23:54:35.166Z,6.55
2018-12-07T23:59:37.579Z,6.83
